Pays
Station

 

Conditions  météo  pour  Brno/Turany  -  République Tchèque    République Tchèque

  
11 °C
    
 
 

METAR pour Brno/Turany :

LKTB 160430Z 22005KT 200V260 5000 BR BKN001 11/10 Q1012 NOSIG

 

Voici le bulletin pour Brno/Turany - République Tchèque.
 
Le bulletin a été fait il y a 26 minutes, à 04:30 UTC .
Le vent soufflait à la vitesse de 2.6 mètres par seconde de Sud-ouest (220°), variant entre Sud/Sud-ouest (200°) et Ouest (260°).
 
La température était de 11 °C, avec un point de rosée à 10 °C.
La pression atmosphérique était de 1012 hPa.
L'humidité relative était de 93.5%.
 
Il y avait 5 à 7/8ème de nébulosité à une hauteur de 30 mètres.
 
La visibilité globale était de 5.0 kilomètres.
 
Actuellement brume.

 
 
 

Pays :   A   B   C   D   E   F   G   H   I   J   K   L   M   N   O   P   Q   R   S   T   U   V   W   Y   Z

 

Partenaires :  Info Météo avec Met'info
Météo Marine avec MeteoMarine.net
Infos Site  |  Infos Légales  |  Crédits  |  Confidentialité
Contactez-nous  |  Ajouter aux favoris
© 2013-2019 METAR - Tous droits réservés